Metar Aviation Weather Data LICT Vincenzo Florio Trapani-Birgi

12°C Temp
9°C Dewpoint
82% Humidity
Temperature
8 KM/H
5 MPH
4 KTS
130°
South East

Wind Speed
Clear
Conditions
Pressure 1016 (hPa) - 30 (in)
Visibility 6.2 (mi) - 10 (km)

Current Conditions
LICT
Vincenzo Florio Trapani-Birgi
Metar :LICT 250355Z 13004KT CAVOK 12/09 Q1016
Fri 25th May 05:55 am

Vincenzo Florio Trapani-Birgi
  Metar Aviation API Data Provided by https://www.checkwx.com/ PHP scripts by weather34.com ©2018